大分空港の過去48時間の天気

大分空港 (Oita)

現在時刻: 2/21 12:41 JST (2/21 03:41 UTC) 以下の時間は現地時間です。

過去48時間のMETAR気象情報
時間 風向 風速(m/s) 視程 気温(℃) 湿度(%) 気圧(hPa) 天気現象
21 12:00 2 10km以上 12 62 1033
21 11:00 3 10km以上 12 62 1034
21 10:00 北東 4 10km以上 11 67 1034
21 09:00 不定 1 10km以上 10 71 1035
21 08:00 西南西 2 10km以上 6 87 1035
21 07:00 西南西 2 10km以上 4 93 1035
20 22:00 西 3 10km以上 8 71 1033
20 21:00 西 3 10km以上 10 58 1033
20 20:00 西 2 10km以上 8 71 1032
20 19:00 西北西 3 10km以上 11 58 1031
20 18:00 西 2 10km以上 12 50 1031
20 17:00 北東 4 10km以上 12 67 1030
20 16:00 北北東 4 10km以上 12 62 1030
20 15:00 北北東 7 10km以上 12 58 1030
20 14:00 北北東 7 10km以上 12 62 1029
20 13:00 北北東 7 10km以上 11 71 1030
20 12:00 北北東 7 10km以上 11 67 1030
20 11:00 北北東 5 10km以上 11 67 1031
20 10:00 北北東 3 10km以上 10 71 1031
20 09:00 北西 2 10km以上 9 81 1031
20 08:00 西 2 10km以上 8 81 1030
20 07:00 西 2 10km以上 7 87 1029
RJFO 210300Z 08004KT 020V100 9999 FEW030 SCT/// 12/05 Q1033
RJFO 210200Z 08005KT 9999 FEW030 12/05 Q1034
RJFO 210100Z 05007KT 9999 FEW030 11/05 Q1034
RJFO 210000Z VRB02KT 9999 FEW030 10/05 Q1035
RJFO 202300Z 25003KT 210V280 9999 FEW030 06/04 Q1035
RJFO 202200Z 25004KT 9999 FEW030 04/03 Q1035
RJFO 201300Z 28006KT 9999 FEW050 08/03 Q1033
RJFO 201200Z 28006KT 9999 FEW050 10/02 Q1033
RJFO 201100Z 27004KT 9999 FEW030 08/03 Q1032
RJFO 201000Z 30005KT 260V330 9999 FEW030 11/03 Q1031
RJFO 200900Z 27004KT 240V300 9999 FEW030 12/02 Q1031
RJFO 200800Z 05008KT 9999 FEW030 12/06 Q1030
RJFO 200700Z 03007KT 9999 FEW030 12/05 Q1030
RJFO 200600Z 02014KT 9999 FEW030 12/04 Q1030
RJFO 200500Z 03014KT 9999 FEW030 12/05 Q1029
RJFO 200400Z 02014KT 9999 FEW030 SCT040 11/06 Q1030
RJFO 200300Z 02013KT 9999 FEW020 SCT040 11/05 Q1030
RJFO 200200Z 02010KT 9999 FEW020 SCT030 11/05 Q1031
RJFO 200100Z 02006KT 340V050 9999 FEW030 BKN130 BKN/// 10/05 Q1031
RJFO 200000Z 32003KT 290V350 9999 FEW030 BKN120 BKN140 09/06 Q1031
RJFO 192300Z 27003KT 230V310 9999 FEW020 BKN120 BKN150 08/05 Q1030
RJFO 192200Z 26003KT 230V300 9999 FEW025 BKN130 07/05 Q1029